Time;durP1;ratioP1;P1;durP2;ratioP2;P2;SDS_P1;SDS_P2;PMS_P1;PMS_P2;Temp;Humidity;BMP_temperature;BMP_pressure;BME280_temperature;BME280_humidity;BME280_pressure;Samples;Min_cycle;Max_cycle;Signal;HPM_P1;HPM_P2
2022/12/24 00:01:00;;;;;;;4.38;1.80;;;36.10;48.90;;;;;;5041585;28;20026;-65
2022/12/24 00:03:27;;;;;;;2.17;1.27;;;36.20;49.40;;;;;;5052909;28;20033;-68
2022/12/24 00:05:55;;;;;;;3.03;1.35;;;36.60;49.20;;;;;;5032671;28;20032;-65
2022/12/24 00:08:22;;;;;;;2.50;1.20;;;36.90;49.80;;;;;;5051134;28;20028;-65
2022/12/24 00:10:53;;;;;;;3.90;1.35;;;37.50;47.40;;;;;;5036349;28;20026;-64
2022/12/24 00:13:20;;;;;;;2.88;1.23;;;37.90;47.00;;;;;;5038271;28;20017;-66
2022/12/24 00:15:48;;;;;;;3.13;1.30;;;38.00;45.40;;;;;;5047822;28;20513;-65
2022/12/24 00:18:16;;;;;;;1.98;1.20;;;37.80;46.40;;;;;;5033416;28;20044;-65
2022/12/24 00:20:47;;;;;;;5.32;1.23;;;37.90;44.40;;;;;;5052282;28;20052;-66
2022/12/24 00:23:15;;;;;;;2.15;1.00;;;38.10;45.90;;;;;;5052556;28;20493;-65
2022/12/24 00:25:43;;;;;;;2.22;1.20;;;38.00;44.20;;;;;;5054112;28;20016;-64
2022/12/24 00:28:10;;;;;;;3.08;0.93;;;37.60;45.40;;;;;;5056993;28;20025;-65
2022/12/24 00:30:39;;;;;;;5.45;1.30;;;37.40;44.90;;;;;;5055338;28;20055;-66
2022/12/24 00:33:06;;;;;;;1.55;1.00;;;37.60;45.90;;;;;;5061937;28;20024;-65
2022/12/24 00:35:35;;;;;;;3.30;1.30;;;38.20;46.50;;;;;;5045412;28;20021;-65
2022/12/24 00:38:02;;;;;;;2.17;1.10;;;38.60;44.40;;;;;;5050572;28;20044;-65
2022/12/24 00:40:30;;;;;;;2.47;1.20;;;38.60;43.80;;;;;;5049882;28;20536;-65
2022/12/24 00:42:58;;;;;;;2.30;1.05;;;38.90;45.30;;;;;;5050138;28;20024;-65
2022/12/24 00:45:28;;;;;;;2.78;0.88;;;38.90;43.60;;;;;;5030846;28;20032;-64
2022/12/24 00:47:55;;;;;;;1.88;0.80;;;38.40;43.00;;;;;;5040507;28;20030;-64
2022/12/24 00:50:23;;;;;;;1.75;1.02;;;38.30;41.20;;;;;;5031399;28;20033;-64
2022/12/24 00:52:50;;;;;;;1.98;1.15;;;38.00;42.30;;;;;;5031639;28;20106;-64
2022/12/24 00:55:17;;;;;;;1.85;1.10;;;37.90;41.50;;;;;;5041795;28;20111;-64
2022/12/24 00:57:44;;;;;;;2.65;1.27;;;38.00;44.00;;;;;;5030733;28;20048;-64
2022/12/24 01:00:12;;;;;;;2.88;0.80;;;38.10;43.80;;;;;;5031489;28;20083;-65
2022/12/24 01:02:39;;;;;;;2.50;1.00;;;38.10;42.10;;;;;;5032044;28;20390;-64
2022/12/24 01:05:09;;;;;;;2.38;1.05;;;38.00;41.80;;;;;;5031669;28;20064;-64
2022/12/24 01:07:42;;;;;;;2.80;1.30;;;37.80;42.10;;;;;;5037300;28;20032;-64
2022/12/24 01:10:12;;;;;;;5.20;1.52;;;38.00;42.70;;;;;;5050083;28;20033;-64
2022/12/24 01:12:40;;;;;;;1.55;0.80;;;38.30;40.90;;;;;;5051117;28;20028;-65
2022/12/24 01:15:08;;;;;;;3.00;1.05;;;38.30;41.00;;;;;;5057282;28;20435;-64
2022/12/24 01:17:36;;;;;;;4.22;0.82;;;38.00;39.50;;;;;;5055063;28;20080;-63
2022/12/24 01:20:05;;;;;;;1.83;0.95;;;38.10;40.20;;;;;;5051362;28;20032;-64
2022/12/24 01:22:32;;;;;;;2.70;1.00;;;37.90;38.50;;;;;;5052926;28;20033;-67
2022/12/24 01:25:00;;;;;;;2.47;0.90;;;38.20;39.40;;;;;;5044939;28;20018;-68
2022/12/24 01:27:27;;;;;;;3.03;0.90;;;38.30;39.80;;;;;;5036228;28;20025;-69
2022/12/24 01:29:54;;;;;;;5.25;0.80;;;38.10;41.30;;;;;;5039734;28;20032;-70
2022/12/24 01:32:21;;;;;;;5.13;1.00;;;38.30;40.60;;;;;;5030090;28;20513;-70
2022/12/24 01:34:48;;;;;;;1.08;0.80;;;38.40;42.20;;;;;;5030050;28;20116;-70
2022/12/24 01:37:16;;;;;;;1.88;0.77;;;38.60;39.60;;;;;;5042352;28;20044;-71
2022/12/24 01:39:43;;;;;;;1.50;0.88;;;38.70;39.40;;;;;;5050648;28;20031;-70
2022/12/24 01:45:34;;;;;;;1.67;0.80;;;38.80;38.90;;;;;;5041908;28;20032;-69
2022/12/24 01:48:01;;;;;;;3.42;1.55;;;38.60;40.40;;;;;;5031153;28;20045;-70
2022/12/24 01:50:29;;;;;;;2.03;0.80;;;38.70;39.60;;;;;;5042965;28;20017;-70
2022/12/24 01:52:57;;;;;;;2.90;0.93;;;39.20;40.10;;;;;;5050692;28;20033;-70
2022/12/24 01:55:26;;;;;;;0.98;0.68;;;39.50;39.30;;;;;;5050543;28;20103;-71
2022/12/24 01:57:57;;;;;;;2.03;0.60;;;39.10;37.50;;;;;;5050543;28;20033;-70
2022/12/24 02:00:24;;;;;;;1.67;0.68;;;39.50;37.80;;;;;;5050585;28;20031;-70
2022/12/24 02:02:53;;;;;;;1.40;0.63;;;39.70;35.20;;;;;;5050479;28;20029;-70
2022/12/24 02:05:31;;;;;;;1.40;0.68;;;39.50;34.20;;;;;;5045513;28;20033;-70
2022/12/24 02:08:01;;;;;;;1.00;0.63;;;39.70;36.50;;;;;;5030526;28;20422;-69
2022/12/24 02:10:28;;;;;;;4.60;1.10;;;40.10;37.40;;;;;;5045541;28;20040;-70
2022/12/24 02:12:56;;;;;;;2.47;0.80;;;40.30;36.10;;;;;;5050278;28;20033;-70
2022/12/24 02:15:24;;;;;;;2.80;0.70;;;40.20;35.40;;;;;;5050206;28;20501;-69
2022/12/24 02:18:04;;;;;;;3.65;0.82;;;40.30;36.40;;;;;;5050052;28;20044;-71
2022/12/24 02:20:39;;;;;;;1.65;0.80;;;39.90;35.70;;;;;;5050324;28;20588;-71
2022/12/24 02:23:59;;;;;;;1.83;0.88;;;39.40;36.70;;;;;;5050249;28;20028;-70
2022/12/24 02:26:54;;;;;;;1.40;0.77;;;39.50;38.00;;;;;;4994982;28;20058;-70
2022/12/24 02:29:42;;;;;;;2.58;0.70;;;39.30;37.10;;;;;;5049967;28;20512;-69
2022/12/24 02:32:26;;;;;;;5.95;0.75;;;39.80;35.90;;;;;;5050086;28;20489;-69
2022/12/24 02:35:07;;;;;;;5.20;2.38;;;39.90;37.30;;;;;;5050039;28;20358;-69
2022/12/24 02:37:43;;;;;;;3.70;0.98;;;40.20;34.30;;;;;;5050300;28;20039;-71
2022/12/24 02:40:10;;;;;;;1.15;0.80;;;39.90;35.10;;;;;;5049909;28;20108;-70
2022/12/24 02:42:43;;;;;;;3.88;0.70;;;39.40;35.30;;;;;;5049896;28;20036;-69
2022/12/24 02:45:15;;;;;;;0.90;0.50;;;39.50;35.60;;;;;;5044467;28;20101;-70
2022/12/24 02:47:44;;;;;;;1.42;0.70;;;39.60;34.50;;;;;;5030034;28;20049;-71
2022/12/24 02:50:15;;;;;;;3.17;0.70;;;39.30;35.60;;;;;;5029827;28;20029;-70
2022/12/24 02:52:45;;;;;;;1.13;0.73;;;39.50;37.00;;;;;;5029853;28;20034;-70
2022/12/24 02:55:12;;;;;;;3.35;0.60;;;39.90;37.70;;;;;;5029821;28;20444;-70
2022/12/24 02:57:45;;;;;;;1.35;0.68;;;40.40;35.50;;;;;;5029736;28;20098;-70
2022/12/24 03:00:17;;;;;;;1.60;0.80;;;41.00;38.10;;;;;;5029869;28;20045;-70
2022/12/24 03:03:01;;;;;;;1.30;0.77;;;41.50;33.60;;;;;;5029778;28;20026;-70
2022/12/24 03:05:51;;;;;;;0.65;0.57;;;41.10;32.20;;;;;;5033098;28;20044;-71
2022/12/24 03:08:24;;;;;;;2.58;0.80;;;40.00;33.30;;;;;;5029696;28;20114;-71
2022/12/24 03:11:05;;;;;;;1.13;0.60;;;39.20;34.00;;;;;;5029751;28;20033;-70
2022/12/24 03:13:33;;;;;;;1.20;0.70;;;38.60;35.20;;;;;;5030190;28;20505;-69
2022/12/24 03:16:05;;;;;;;1.58;0.73;;;38.40;35.40;;;;;;5040934;28;20021;-69
2022/12/24 03:18:32;;;;;;;1.65;0.68;;;38.60;36.90;;;;;;5049893;28;20031;-69
2022/12/24 03:21:07;;;;;;;0.90;0.50;;;38.70;36.30;;;;;;5049355;28;20378;-70
2022/12/24 03:23:35;;;;;;;1.10;0.57;;;38.60;35.20;;;;;;5049965;28;20032;-70
2022/12/24 03:26:06;;;;;;;1.95;0.80;;;38.30;34.70;;;;;;5049563;28;20482;-69
2022/12/24 03:28:34;;;;;;;1.20;0.68;;;38.30;35.10;;;;;;5049821;28;20412;-70
2022/12/24 03:31:05;;;;;;;1.52;0.85;;;38.00;35.00;;;;;;5049663;28;20028;-71
2022/12/24 03:33:32;;;;;;;1.00;0.65;;;37.80;34.70;;;;;;5049812;28;20029;-70
2022/12/24 03:36:00;;;;;;;3.22;0.90;;;37.30;35.60;;;;;;5049176;28;20013;-70
2022/12/24 03:38:27;;;;;;;1.52;0.70;;;37.00;36.30;;;;;;5052713;28;20108;-71
2022/12/24 03:40:54;;;;;;;1.85;0.60;;;36.70;36.50;;;;;;5041554;28;20390;-70
2022/12/24 03:43:22;;;;;;;2.05;0.80;;;36.40;36.40;;;;;;5033339;28;20097;-70
2022/12/24 03:45:49;;;;;;;2.00;0.70;;;36.20;37.50;;;;;;5033034;28;20049;-69
2022/12/24 03:48:16;;;;;;;2.45;0.70;;;36.50;37.60;;;;;;5036644;28;20031;-71
2022/12/24 03:50:43;;;;;;;3.15;1.25;;;36.90;36.70;;;;;;5051579;28;20032;-69
2022/12/24 03:53:11;;;;;;;2.42;1.08;;;37.40;37.40;;;;;;5033239;28;20079;-70
2022/12/24 03:55:39;;;;;;;1.35;0.60;;;38.00;36.40;;;;;;5032948;28;20029;-68
2022/12/24 03:58:06;;;;;;;1.00;0.65;;;38.70;37.00;;;;;;5033323;28;20036;-70
2022/12/24 04:00:33;;;;;;;1.33;0.80;;;39.40;36.20;;;;;;5033407;28;20474;-70
2022/12/24 04:03:01;;;;;;;1.60;0.60;;;39.00;34.90;;;;;;5032921;28;20402;-70
2022/12/24 04:05:28;;;;;;;1.80;0.82;;;39.30;34.50;;;;;;5038309;28;20028;-68
2022/12/24 04:07:55;;;;;;;2.97;0.80;;;38.90;34.60;;;;;;5052515;28;20029;-71
2022/12/24 04:10:22;;;;;;;2.83;1.20;;;38.00;35.00;;;;;;5052637;28;20446;-70
2022/12/24 04:12:50;;;;;;;1.38;0.70;;;37.40;35.70;;;;;;5051358;28;20024;-69
2022/12/24 04:15:17;;;;;;;1.77;0.70;;;36.80;36.50;;;;;;5051851;28;20036;-70
2022/12/24 04:17:44;;;;;;;1.70;0.63;;;36.40;36.20;;;;;;5051072;28;20048;-70
2022/12/24 04:20:12;;;;;;;3.33;0.80;;;36.10;37.40;;;;;;5052062;28;20029;-70
2022/12/24 04:22:40;;;;;;;2.45;1.30;;;35.80;39.70;;;;;;5052469;28;20021;-70
2022/12/24 04:25:08;;;;;;;3.28;1.23;;;35.60;42.40;;;;;;5051307;28;20537;-69
2022/12/24 04:27:36;;;;;;;2.40;1.42;;;35.10;44.30;;;;;;5052756;28;20508;-71
2022/12/24 04:30:03;;;;;;;2.65;1.20;;;34.70;45.30;;;;;;5052663;28;20017;-70
2022/12/24 04:32:30;;;;;;;1.98;1.23;;;34.40;45.40;;;;;;5052107;28;20032;-70
2022/12/24 04:34:58;;;;;;;3.13;1.58;;;34.10;45.70;;;;;;5052188;28;20604;-69
2022/12/24 04:37:25;;;;;;;2.47;1.27;;;34.30;46.70;;;;;;5051974;28;20082;-69
2022/12/24 04:39:52;;;;;;;1.85;1.38;;;34.50;46.60;;;;;;5051450;28;20112;-68
2022/12/24 04:42:19;;;;;;;4.72;1.40;;;34.70;47.40;;;;;;5052257;28;20379;-70
2022/12/24 04:44:47;;;;;;;3.33;1.88;;;34.80;46.40;;;;;;5052024;28;20032;-69
2022/12/24 04:47:14;;;;;;;3.22;1.40;;;34.50;46.20;;;;;;5051798;28;20053;-71
2022/12/24 04:49:41;;;;;;;5.45;1.70;;;33.80;46.70;;;;;;5035103;28;20072;-70
2022/12/24 04:52:12;;;;;;;4.68;1.50;;;33.30;47.40;;;;;;5031835;28;20509;-70
2022/12/24 04:54:39;;;;;;;2.38;1.40;;;33.00;48.60;;;;;;5032078;28;20535;-69
2022/12/24 04:57:06;;;;;;;3.85;1.55;;;32.70;48.90;;;;;;5032197;28;20117;-70
2022/12/24 04:59:33;;;;;;;4.35;1.45;;;32.40;49.00;;;;;;5031796;28;20562;-70
2022/12/24 05:02:01;;;;;;;2.65;1.38;;;32.40;48.70;;;;;;5031716;28;20060;-71
2022/12/24 05:04:28;;;;;;;2.28;1.30;;;32.70;48.50;;;;;;5031604;28;20027;-69
2022/12/24 05:06:55;;;;;;;2.58;1.50;;;33.30;48.70;;;;;;5031665;28;20100;-70
2022/12/24 05:09:22;;;;;;;2.20;1.33;;;33.50;47.50;;;;;;5031658;28;20029;-71
2022/12/24 05:11:49;;;;;;;2.22;1.10;;;33.60;47.00;;;;;;5031674;28;20483;-70
2022/12/24 05:14:17;;;;;;;4.22;1.30;;;33.80;47.10;;;;;;5031637;28;20032;-71
2022/12/24 05:16:44;;;;;;;5.40;1.33;;;33.90;47.00;;;;;;5030007;28;20128;-69
2022/12/24 05:19:11;;;;;;;6.70;1.45;;;34.20;46.70;;;;;;5031232;28;20109;-70
2022/12/24 05:21:38;;;;;;;3.75;1.30;;;34.30;46.70;;;;;;5031680;28;20026;-70
2022/12/24 05:26:56;;;;;;;2.28;0.88;;;33.60;46.20;;;;;;5051215;28;20071;-70
2022/12/24 05:29:24;;;;;;;3.47;1.50;;;33.50;46.80;;;;;;5051031;28;20017;-70
2022/12/24 05:31:51;;;;;;;2.15;1.00;;;33.50;46.70;;;;;;5050823;28;20470;-70
2022/12/24 05:34:19;;;;;;;6.05;0.93;;;33.30;45.80;;;;;;5049800;28;20029;-71
2022/12/24 05:36:46;;;;;;;2.55;1.52;;;33.40;45.90;;;;;;5050868;28;20029;-71
2022/12/24 05:39:17;;;;;;;2.70;1.35;;;33.30;46.50;;;;;;5050827;28;20096;-70
2022/12/24 05:41:45;;;;;;;2.88;0.85;;;33.20;46.90;;;;;;5050933;28;20539;-70
2022/12/24 05:44:14;;;;;;;2.90;1.38;;;33.40;46.40;;;;;;5050898;28;20438;-71
2022/12/24 05:46:42;;;;;;;1.67;0.77;;;33.30;45.70;;;;;;5050291;28;20135;-71
2022/12/24 05:49:09;;;;;;;3.75;1.00;;;33.40;46.20;;;;;;5050840;28;20070;-67
2022/12/24 05:51:36;;;;;;;3.08;0.80;;;33.60;46.00;;;;;;5050732;28;20024;-71
2022/12/24 05:54:04;;;;;;;3.88;0.63;;;33.40;45.70;;;;;;5050503;28;20057;-72
2022/12/24 05:56:31;;;;;;;1.73;0.77;;;33.30;45.50;;;;;;5050637;28;20378;-70
2022/12/24 05:58:58;;;;;;;3.65;0.98;;;33.10;46.20;;;;;;5050461;28;20100;-71
2022/12/24 06:01:27;;;;;;;2.80;0.95;;;33.10;46.50;;;;;;5049443;28;20076;-72
2022/12/24 06:03:56;;;;;;;2.80;1.23;;;33.00;47.00;;;;;;5050317;28;20025;-72
2022/12/24 06:06:25;;;;;;;2.15;0.80;;;32.90;47.00;;;;;;5050427;28;20064;-70
2022/12/24 06:08:53;;;;;;;3.53;0.85;;;32.60;47.00;;;;;;5050374;28;20025;-71
2022/12/24 06:11:26;;;;;;;4.35;1.27;;;32.60;46.40;;;;;;5046381;28;20029;-71
2022/12/24 06:13:54;;;;;;;2.67;0.90;;;32.60;47.20;;;;;;5050360;28;20079;-71
2022/12/24 06:16:23;;;;;;;1.70;0.60;;;32.50;46.10;;;;;;5049558;28;20051;-71
2022/12/24 06:18:50;;;;;;;1.85;0.85;;;32.50;43.20;;;;;;5030080;28;20104;-71
2022/12/24 06:21:18;;;;;;;1.83;0.73;;;32.60;44.90;;;;;;5030394;28;20143;-72
2022/12/24 06:23:46;;;;;;;3.33;0.60;;;32.80;44.50;;;;;;5030248;28;20105;-72
2022/12/24 06:26:16;;;;;;;1.05;0.60;;;33.00;45.10;;;;;;5042918;28;20033;-68
2022/12/24 06:28:44;;;;;;;1.50;0.80;;;33.10;44.10;;;;;;5049931;28;20125;-69
2022/12/24 06:31:15;;;;;;;1.75;0.90;;;33.20;44.40;;;;;;5048406;28;20032;-70
2022/12/24 06:33:43;;;;;;;1.70;0.90;;;33.00;44.90;;;;;;5049866;28;20075;-70
2022/12/24 06:36:18;;;;;;;3.10;0.70;;;32.90;44.20;;;;;;5034767;28;20033;-70
2022/12/24 06:38:46;;;;;;;2.53;0.60;;;32.70;44.10;;;;;;5030021;28;20035;-70
2022/12/24 06:41:14;;;;;;;2.42;0.70;;;32.70;44.00;;;;;;5029879;28;20025;-70
2022/12/24 06:43:46;;;;;;;3.50;0.93;;;32.50;44.20;;;;;;5029819;28;20037;-70
2022/12/24 06:46:14;;;;;;;2.17;0.73;;;32.60;43.30;;;;;;5029581;28;20128;-70
2022/12/24 06:48:43;;;;;;;1.27;0.65;;;32.40;43.20;;;;;;5029597;28;20061;-69
2022/12/24 06:51:10;;;;;;;1.13;0.73;;;32.40;43.00;;;;;;5031060;28;20093;-68
2022/12/24 06:53:38;;;;;;;1.70;0.50;;;32.40;43.40;;;;;;5050129;28;20052;-70
2022/12/24 06:56:11;;;;;;;1.58;0.55;;;32.50;43.10;;;;;;5049882;28;20021;-70
2022/12/24 06:58:39;;;;;;;2.75;0.88;;;32.60;41.90;;;;;;5050233;28;20040;-71
2022/12/24 07:01:09;;;;;;;5.43;0.68;;;32.50;42.40;;;;;;5049818;28;20025;-70
2022/12/24 07:03:36;;;;;;;1.00;0.50;;;32.60;42.50;;;;;;5048441;28;20021;-71
2022/12/24 07:06:03;;;;;;;1.55;0.60;;;32.60;41.90;;;;;;5033212;28;20105;-70
2022/12/24 07:08:35;;;;;;;3.13;0.70;;;32.60;42.20;;;;;;5029605;28;20518;-70
2022/12/24 07:11:02;;;;;;;3.78;0.68;;;32.40;41.90;;;;;;5029289;28;20029;-70
2022/12/24 07:13:30;;;;;;;1.60;0.52;;;32.40;41.50;;;;;;5029280;28;20032;-69
2022/12/24 07:16:02;;;;;;;1.08;0.60;;;32.30;41.60;;;;;;5029485;28;20033;-71
2022/12/24 07:18:29;;;;;;;2.05;0.50;;;32.20;41.70;;;;;;5029479;28;20132;-71
2022/12/24 07:20:57;;;;;;;2.83;0.70;;;32.10;42.20;;;;;;5029546;28;20025;-71
2022/12/24 07:23:24;;;;;;;3.35;0.70;;;32.20;42.40;;;;;;5029492;28;20038;-70
2022/12/24 07:25:51;;;;;;;1.08;0.57;;;32.10;42.40;;;;;;5042881;28;20182;-70
2022/12/24 07:28:19;;;;;;;1.75;0.60;;;32.20;42.00;;;;;;5049311;28;20029;-70
2022/12/24 07:30:47;;;;;;;2.50;0.57;;;32.00;42.40;;;;;;5046837;28;20410;-69
2022/12/24 07:33:14;;;;;;;0.63;0.47;;;31.70;42.50;;;;;;5050338;28;20028;-67
2022/12/24 07:35:41;;;;;;;0.80;0.40;;;31.50;42.70;;;;;;5031785;28;20042;-65
2022/12/24 07:38:09;;;;;;;1.92;0.65;;;31.50;42.80;;;;;;5038819;28;20033;-68
2022/12/24 07:40:36;;;;;;;2.72;0.60;;;31.30;42.70;;;;;;5058255;28;20019;-69
2022/12/24 07:43:03;;;;;;;1.48;0.70;;;31.30;43.10;;;;;;5065553;28;20448;-70
2022/12/24 07:45:30;;;;;;;1.70;0.63;;;31.30;42.80;;;;;;5052734;28;20048;-70
2022/12/24 07:47:57;;;;;;;3.85;0.75;;;31.30;42.60;;;;;;5066622;28;20070;-70
2022/12/24 07:50:25;;;;;;;1.63;0.52;;;31.20;42.10;;;;;;5049806;28;20048;-69
2022/12/24 07:52:52;;;;;;;3.33;0.80;;;31.20;42.80;;;;;;5028134;28;20615;-69
2022/12/24 07:55:19;;;;;;;1.52;0.50;;;31.20;42.70;;;;;;5030707;28;20439;-68
2022/12/24 07:57:46;;;;;;;1.80;0.65;;;31.10;42.60;;;;;;5047122;28;20033;-68
2022/12/24 08:00:14;;;;;;;1.27;0.57;;;30.90;42.80;;;;;;5043089;28;20021;-68
2022/12/24 08:02:41;;;;;;;1.92;0.75;;;30.80;43.10;;;;;;5037550;28;20021;-68
2022/12/24 08:05:09;;;;;;;1.73;0.50;;;30.60;43.20;;;;;;5039492;28;20033;-68
2022/12/24 08:07:36;;;;;;;2.88;0.80;;;30.50;43.30;;;;;;5036901;28;21279;-68
2022/12/24 08:10:04;;;;;;;1.90;0.30;;;30.40;43.60;;;;;;5048618;28;20021;-69
2022/12/24 08:12:31;;;;;;;2.65;0.40;;;30.30;43.60;;;;;;5042874;28;20034;-70
2022/12/24 08:14:58;;;;;;;1.05;0.57;;;30.10;43.50;;;;;;5032363;28;20098;-69
2022/12/24 08:17:25;;;;;;;2.30;0.60;;;30.00;43.80;;;;;;5050192;28;20057;-68
2022/12/24 08:19:52;;;;;;;1.73;0.63;;;29.90;44.20;;;;;;5034346;28;20104;-69
2022/12/24 08:22:20;;;;;;;1.63;0.77;;;29.80;44.40;;;;;;5035352;28;20025;-70
2022/12/24 08:24:47;;;;;;;2.40;0.80;;;29.70;44.10;;;;;;5052820;28;20091;-69
2022/12/24 08:27:14;;;;;;;1.50;0.70;;;29.70;44.20;;;;;;5038813;28;20032;-67
2022/12/24 08:29:41;;;;;;;1.50;0.70;;;29.60;44.20;;;;;;5037318;28;20022;-69
2022/12/24 08:32:09;;;;;;;2.63;1.00;;;29.50;44.40;;;;;;5041315;28;20025;-69
2022/12/24 08:34:36;;;;;;;2.90;0.90;;;29.40;44.30;;;;;;5051980;28;20474;-71
2022/12/24 08:37:03;;;;;;;3.42;1.05;;;29.20;44.20;;;;;;5050918;28;20045;-68
2022/12/24 08:39:30;;;;;;;2.75;0.90;;;29.10;44.50;;;;;;5046578;28;20029;-70
2022/12/24 08:41:57;;;;;;;2.40;0.73;;;29.00;44.70;;;;;;5040460;28;20115;-69
2022/12/24 08:44:24;;;;;;;5.00;0.73;;;28.90;44.90;;;;;;5046892;28;20029;-69
2022/12/24 08:46:52;;;;;;;1.80;0.75;;;28.70;45.20;;;;;;5038774;28;20052;-69
2022/12/24 08:49:19;;;;;;;2.33;0.90;;;28.50;45.20;;;;;;5042773;28;20032;-70
2022/12/24 08:51:47;;;;;;;2.97;0.90;;;28.40;45.40;;;;;;5040998;28;20037;-70
2022/12/24 08:54:15;;;;;;;0.98;0.50;;;28.30;45.50;;;;;;5037621;28;20030;-73
2022/12/24 08:56:42;;;;;;;3.78;0.93;;;28.20;45.70;;;;;;5035393;28;20034;-73
2022/12/24 08:59:11;;;;;;;1.55;0.68;;;28.10;45.90;;;;;;5032243;28;20026;-72
2022/12/24 09:01:38;;;;;;;1.98;0.98;;;28.00;46.00;;;;;;5050666;28;20024;-72
2022/12/24 09:04:06;;;;;;;1.58;0.70;;;27.80;46.00;;;;;;5051556;28;20064;-67
2022/12/24 09:06:33;;;;;;;5.00;0.90;;;27.80;45.70;;;;;;5049827;28;20108;-72
2022/12/24 09:09:01;;;;;;;3.78;1.10;;;27.80;45.90;;;;;;5039615;28;20049;-72
2022/12/24 09:11:28;;;;;;;5.68;1.17;;;27.70;46.10;;;;;;5039691;28;20382;-74
2022/12/24 09:13:55;;;;;;;3.42;0.80;;;27.40;46.80;;;;;;5043033;28;20029;-70
2022/12/24 09:16:23;;;;;;;1.77;0.57;;;27.20;47.60;;;;;;5043442;28;20113;-71
2022/12/24 09:18:50;;;;;;;2.88;0.82;;;27.00;47.70;;;;;;5045569;28;20038;-73
2022/12/24 09:21:17;;;;;;;2.80;1.30;;;26.90;48.40;;;;;;5033411;28;20386;-72
2022/12/24 09:23:47;;;;;;;2.85;1.00;;;26.70;49.10;;;;;;5031398;28;20494;-72
2022/12/24 09:26:24;;;;;;;1.92;0.65;;;26.60;49.70;;;;;;5039623;28;20118;-70
2022/12/24 09:28:52;;;;;;;2.28;0.90;;;26.50;50.20;;;;;;5042810;28;20553;-71
2022/12/24 09:31:20;;;;;;;3.63;0.93;;;26.50;50.70;;;;;;5033453;28;20029;-71
2022/12/24 09:33:49;;;;;;;3.95;1.13;;;26.40;50.70;;;;;;5035675;28;20016;-71
2022/12/24 09:36:17;;;;;;;1.35;0.63;;;26.40;51.00;;;;;;5030281;28;20060;-71
2022/12/24 09:38:45;;;;;;;2.53;0.85;;;26.40;50.50;;;;;;5034074;28;20371;-70
2022/12/24 09:41:15;;;;;;;1.25;0.63;;;26.50;50.80;;;;;;5044953;28;20028;-71
2022/12/24 09:43:51;;;;;;;1.90;0.98;;;26.50;50.70;;;;;;5045857;28;20033;-70
2022/12/24 09:46:31;;;;;;;1.35;0.77;;;26.40;50.80;;;;;;5053316;28;20045;-69
2022/12/24 09:49:08;;;;;;;2.30;0.80;;;26.50;50.80;;;;;;5038271;28;20024;-70
2022/12/24 09:51:53;;;;;;;2.30;1.08;;;26.50;50.70;;;;;;5032879;28;20022;-71
2022/12/24 09:54:24;;;;;;;2.20;0.70;;;26.40;50.90;;;;;;5035726;28;20029;-71
2022/12/24 09:56:53;;;;;;;2.38;0.88;;;26.30;51.20;;;;;;5029399;28;20080;-70
2022/12/24 09:59:51;;;;;;;2.15;1.30;;;26.10;51.70;;;;;;5029198;28;20021;-70
2022/12/24 10:02:19;;;;;;;1.42;0.80;;;26.10;52.20;;;;;;5029461;28;20040;-69
2022/12/24 10:04:48;;;;;;;2.03;0.90;;;25.90;52.40;;;;;;5030753;28;20567;-71
2022/12/24 10:07:53;;;;;;;1.63;0.90;;;25.70;52.90;;;;;;5032835;28;20033;-72
2022/12/24 10:10:26;;;;;;;3.28;1.23;;;25.50;53.70;;;;;;5045929;28;20033;-70
2022/12/24 10:13:08;;;;;;;2.20;1.00;;;25.20;54.40;;;;;;5036794;28;20371;-70
2022/12/24 10:16:04;;;;;;;2.78;0.82;;;25.00;54.80;;;;;;5029607;28;20040;-71
2022/12/24 10:18:54;;;;;;;2.75;0.70;;;25.00;54.80;;;;;;5042715;28;20092;-73
2022/12/24 10:21:27;;;;;;;3.60;1.00;;;24.90;55.60;;;;;;5045364;28;20063;-69
2022/12/24 10:24:02;;;;;;;4.35;0.93;;;24.80;55.80;;;;;;5039982;28;20031;-70
2022/12/24 10:26:55;;;;;;;1.55;0.80;;;24.80;56.30;;;;;;5047727;28;20025;-70
2022/12/24 10:29:40;;;;;;;3.13;0.82;;;24.70;56.90;;;;;;5045231;28;20041;-71
2022/12/24 10:32:10;;;;;;;2.30;1.20;;;24.60;57.40;;;;;;5048028;28;20021;-70
2022/12/24 10:34:46;;;;;;;3.05;1.40;;;24.50;57.50;;;;;;5029077;28;20037;-69
2022/12/24 10:37:30;;;;;;;2.42;1.35;;;24.50;57.80;;;;;;5044423;28;20032;-69
2022/12/24 10:39:59;;;;;;;3.80;2.03;;;24.60;58.50;;;;;;5041275;28;20033;-70
2022/12/24 10:42:41;;;;;;;2.75;1.50;;;24.60;59.10;;;;;;5043204;28;20029;-71
2022/12/24 10:45:15;;;;;;;5.07;1.70;;;24.60;59.60;;;;;;5037360;28;20029;-72
2022/12/24 10:47:47;;;;;;;2.30;1.40;;;24.50;60.10;;;;;;5026470;28;20071;-71
2022/12/24 10:50:30;;;;;;;4.32;1.98;;;24.50;60.60;;;;;;5033307;28;20040;-71
2022/12/24 10:53:18;;;;;;;2.00;1.40;;;24.50;61.20;;;;;;5043285;28;20025;-70
2022/12/24 10:55:47;;;;;;;5.07;1.90;;;24.50;61.70;;;;;;5047254;28;20025;-70
2022/12/24 10:58:21;;;;;;;3.35;1.60;;;24.60;62.10;;;;;;5045542;28;20033;-70
2022/12/24 11:00:53;;;;;;;2.95;1.60;;;24.50;62.40;;;;;;5040668;28;20021;-71
2022/12/24 11:03:23;;;;;;;3.25;1.75;;;24.40;62.70;;;;;;5043091;28;20032;-71
2022/12/24 11:06:04;;;;;;;3.15;1.90;;;24.40;63.20;;;;;;5031955;28;20028;-71
2022/12/24 11:08:33;;;;;;;3.53;1.95;;;24.30;63.90;;;;;;5027425;28;20112;-71
2022/12/24 11:11:12;;;;;;;6.07;1.70;;;24.20;64.20;;;;;;5029819;28;20053;-70
2022/12/24 11:13:45;;;;;;;5.20;1.80;;;24.10;64.80;;;;;;5027949;28;20025;-69
2022/12/24 11:16:19;;;;;;;7.80;2.03;;;23.90;66.20;;;;;;5042157;28;20025;-70
2022/12/24 11:18:52;;;;;;;4.60;2.13;;;23.90;67.30;;;;;;5046112;28;20051;-71
2022/12/24 11:21:39;;;;;;;5.82;2.20;;;23.70;68.30;;;;;;5039091;28;20017;-72
2022/12/24 11:24:12;;;;;;;3.20;2.20;;;23.40;69.00;;;;;;5036369;28;20128;-72
2022/12/24 11:26:42;;;;;;;4.10;1.80;;;23.30;71.30;;;;;;5034615;28;20378;-72
2022/12/24 11:29:13;;;;;;;4.53;1.80;;;23.20;72.80;;;;;;5036906;28;20398;-74
2022/12/24 11:31:42;;;;;;;3.15;2.10;;;23.00;74.80;;;;;;5028474;28;20021;-72
2022/12/24 11:34:28;;;;;;;7.18;2.20;;;22.90;77.50;;;;;;5041981;28;20033;-72
2022/12/24 11:37:14;;;;;;;3.05;2.10;;;22.70;79.20;;;;;;5031526;28;20041;-71
2022/12/24 11:39:51;;;;;;;7.70;2.97;;;22.60;83.30;;;;;;5045862;28;20120;-71
2022/12/24 11:42:27;;;;;;;6.93;3.03;;;22.50;88.30;;;;;;5038144;28;20399;-71
2022/12/24 11:44:56;;;;;;;5.28;3.10;;;22.40;90.90;;;;;;5032996;28;20065;-71
2022/12/24 11:47:40;;;;;;;6.03;3.10;;;22.30;92.10;;;;;;5034911;28;20040;-71
2022/12/24 11:50:23;;;;;;;8.27;3.47;;;22.20;93.50;;;;;;5028305;28;20033;-71
2022/12/24 11:53:07;;;;;;;5.30;3.20;;;22.20;93.80;;;;;;5030675;28;20037;-73
2022/12/24 11:55:52;;;;;;;8.38;3.25;;;22.10;95.70;;;;;;5031850;28;20467;-73
2022/12/24 11:58:31;;;;;;;7.53;3.53;;;22.10;96.00;;;;;;5038901;28;20033;-73
2022/12/24 12:01:21;;;;;;;7.05;3.13;;;22.10;97.30;;;;;;5042060;28;20029;-74
2022/12/24 12:04:31;;;;;;;4.78;3.03;;;22.10;97.20;;;;;;5036811;28;20086;-72
2022/12/24 12:07:18;;;;;;;6.80;3.45;;;22.10;97.60;;;;;;5041797;28;20037;-73
2022/12/24 12:09:58;;;;;;;6.50;3.55;;;22.10;98.00;;;;;;5044952;28;20029;-74
2022/12/24 12:12:33;;;;;;;6.78;3.90;;;22.10;99.00;;;;;;5049466;28;20381;-71
2022/12/24 12:15:16;;;;;;;8.00;3.75;;;22.30;99.20;;;;;;5047112;28;20025;-73
2022/12/24 12:18:17;;;;;;;4.60;3.60;;;22.40;99.30;;;;;;5036730;28;20123;-71
2022/12/24 12:21:27;;;;;;;6.90;3.40;;;22.60;99.40;;;;;;5046006;28;20071;-72
2022/12/24 12:24:34;;;;;;;8.05;4.47;;;22.60;99.60;;;;;;5038700;28;20569;-72
2022/12/24 12:27:26;;;;;;;7.35;4.60;;;22.50;99.80;;;;;;5034176;28;20029;-73
2022/12/24 12:30:05;;;;;;;7.80;4.03;;;22.50;99.90;;;;;;5042734;28;20039;-73
2022/12/24 12:33:03;;;;;;;11.98;6.07;;;22.50;99.90;;;;;;5046039;28;20589;-73
2022/12/24 12:35:34;;;;;;;8.48;4.05;;;22.50;99.90;;;;;;5037563;28;20037;-72
2022/12/24 12:38:05;;;;;;;8.93;3.83;;;22.50;99.90;;;;;;5034822;28;20033;-72
2022/12/24 12:41:09;;;;;;;7.75;3.90;;;22.40;99.90;;;;;;5047010;28;20083;-72
2022/12/24 12:44:20;;;;;;;12.52;4.72;;;22.40;99.90;;;;;;5032543;28;20028;-73
2022/12/24 12:47:01;;;;;;;8.02;3.50;;;22.30;99.90;;;;;;5046666;28;20056;-73
2022/12/24 12:49:46;;;;;;;7.03;3.72;;;22.30;99.90;;;;;;5036235;28;20111;-72
2022/12/24 12:53:00;;;;;;;7.28;3.92;;;22.30;99.90;;;;;;5035033;28;20054;-74
2022/12/24 12:55:56;;;;;;;6.97;3.30;;;22.20;99.90;;;;;;5046205;28;20026;-73
2022/12/24 12:58:27;;;;;;;8.07;3.42;;;22.20;99.90;;;;;;5049129;28;20035;-72
2022/12/24 13:01:08;;;;;;;6.95;4.10;;;22.20;99.90;;;;;;5049339;28;20490;-72
2022/12/24 13:04:01;;;;;;;8.63;4.60;;;22.10;99.90;;;;;;5051573;28;20025;-73
2022/12/24 13:06:36;;;;;;;4.72;3.20;;;22.10;99.90;;;;;;5038382;28;20060;-72
2022/12/24 13:09:07;;;;;;;8.90;4.00;;;22.00;99.90;;;;;;5053736;28;20111;-73
2022/12/24 13:11:43;;;;;;;8.57;4.43;;;22.00;99.90;;;;;;5039567;28;20034;-73
2022/12/24 13:14:48;;;;;;;9.98;4.00;;;22.00;99.90;;;;;;5039085;28;20026;-72
2022/12/24 13:17:33;;;;;;;;;;;21.90;99.90;;;;;;5049925;28;20045;-73
2022/12/24 13:20:18;;;;;;;8.32;4.80;;;21.90;99.90;;;;;;5038613;28;19908;-72